createdAt,value
2022-12-31T00:03:09.080Z,6.48
2022-12-31T00:07:11.855Z,6.57
2022-12-31T00:11:16.629Z,6.68
2022-12-31T00:15:19.602Z,6.67
2022-12-31T00:19:22.256Z,6.59
2022-12-31T00:23:24.928Z,6.57
2022-12-31T00:27:31.320Z,6.53
2022-12-31T00:31:35.976Z,6.43
2022-12-31T00:35:38.659Z,6.43
2022-12-31T00:39:41.360Z,6.39
2022-12-31T00:43:45.840Z,6.39
2022-12-31T00:47:48.492Z,6.34
2022-12-31T00:51:51.163Z,6.37
2022-12-31T00:56:00.193Z,6.39
2022-12-31T01:00:07.236Z,6.41
2022-12-31T01:04:12.660Z,6.48
2022-12-31T01:08:15.339Z,6.48
2022-12-31T01:12:18.059Z,6.48
2022-12-31T01:16:23.924Z,6.46
2022-12-31T01:20:26.605Z,6.52
2022-12-31T01:24:29.315Z,6.63
2022-12-31T01:28:32.426Z,6.53
2022-12-31T01:32:36.476Z,6.43
2022-12-31T01:36:39.739Z,6.35
2022-12-31T01:40:42.903Z,6.29
2022-12-31T01:44:52.029Z,6.25
2022-12-31T01:49:00.225Z,6.32
2022-12-31T01:53:06.035Z,6.40
2022-12-31T01:57:10.482Z,6.44
2022-12-31T02:01:18.830Z,6.40
2022-12-31T02:05:27.204Z,6.33
2022-12-31T02:09:31.388Z,6.20
2022-12-31T02:13:34.100Z,5.97
2022-12-31T02:17:47.571Z,5.93
2022-12-31T02:22:01.507Z,6.11
2022-12-31T02:26:29.682Z,6.33
2022-12-31T02:30:34.491Z,6.84
2022-12-31T02:34:42.534Z,7.07
2022-12-31T02:38:48.703Z,7.35
2022-12-31T02:42:55.306Z,7.41
2022-12-31T02:47:14.322Z,7.44
2022-12-31T02:51:32.304Z,7.54
2022-12-31T02:55:43.110Z,7.68
2022-12-31T03:00:11.857Z,7.72
2022-12-31T03:04:36.189Z,7.79
2022-12-31T03:08:57.039Z,7.79
2022-12-31T03:12:59.729Z,7.83
2022-12-31T03:17:02.494Z,7.85
2022-12-31T03:21:30.501Z,7.92
2022-12-31T03:25:36.011Z,8.03
2022-12-31T03:29:38.622Z,8.05
2022-12-31T03:33:42.758Z,8.08
2022-12-31T03:37:47.496Z,8.07
2022-12-31T03:41:50.178Z,8.06
2022-12-31T03:45:54.551Z,8.15
2022-12-31T03:49:57.187Z,8.15
2022-12-31T03:54:01.170Z,8.17
2022-12-31T03:58:03.904Z,8.19
2022-12-31T04:02:06.739Z,8.32
2022-12-31T04:06:09.428Z,8.46
2022-12-31T04:10:14.985Z,8.58
2022-12-31T04:14:17.841Z,8.62
2022-12-31T04:18:20.434Z,8.69
2022-12-31T04:22:23.119Z,8.66
2022-12-31T04:26:27.135Z,8.64
2022-12-31T04:30:29.812Z,8.66
2022-12-31T04:34:32.644Z,8.74
2022-12-31T04:38:35.648Z,9.01
2022-12-31T04:42:39.712Z,9.23
2022-12-31T04:46:42.569Z,9.37
2022-12-31T04:50:47.564Z,9.44
2022-12-31T04:54:50.165Z,9.44
2022-12-31T04:58:54.469Z,9.39
2022-12-31T05:02:57.135Z,9.30
2022-12-31T05:06:59.811Z,9.35
2022-12-31T05:11:02.421Z,9.36
2022-12-31T05:15:08.049Z,9.36
2022-12-31T05:19:10.899Z,9.30
2022-12-31T05:23:14.182Z,9.37
2022-12-31T05:27:16.869Z,9.48
2022-12-31T05:31:20.881Z,9.51
2022-12-31T05:35:23.530Z,9.53
2022-12-31T05:39:26.273Z,9.54
2022-12-31T05:43:29.521Z,9.47
2022-12-31T05:47:33.669Z,9.56
2022-12-31T05:51:36.326Z,9.61
2022-12-31T05:55:38.949Z,9.60
2022-12-31T05:59:41.611Z,9.65
2022-12-31T06:03:45.676Z,9.64
2022-12-31T06:07:48.307Z,9.58
2022-12-31T06:11:51.239Z,9.55
2022-12-31T06:15:53.933Z,9.53
2022-12-31T06:19:57.973Z,9.57
2022-12-31T06:24:00.833Z,9.68
2022-12-31T06:28:03.542Z,9.71
2022-12-31T06:32:06.727Z,9.67
2022-12-31T06:36:14.450Z,9.67
2022-12-31T06:40:17.287Z,9.60
2022-12-31T06:44:22.386Z,9.52
2022-12-31T06:48:25.103Z,9.46
2022-12-31T06:52:29.112Z,9.36
2022-12-31T06:56:34.836Z,9.00
2022-12-31T07:00:38.504Z,8.63
2022-12-31T07:05:08.630Z,8.38
2022-12-31T07:09:22.829Z,8.20
2022-12-31T07:13:59.191Z,8.23
2022-12-31T07:18:11.360Z,8.48
2022-12-31T07:22:16.775Z,8.64
2022-12-31T07:26:36.514Z,8.62
2022-12-31T07:30:47.904Z,8.60
2022-12-31T07:35:03.572Z,8.68
2022-12-31T07:39:10.464Z,8.59
2022-12-31T07:43:19.221Z,8.46
2022-12-31T07:47:24.044Z,8.09
2022-12-31T07:51:27.461Z,7.62
2022-12-31T07:55:30.163Z,7.44
2022-12-31T07:59:48.387Z,7.43
2022-12-31T08:03:59.750Z,7.47
2022-12-31T08:08:12.437Z,7.62
2022-12-31T08:12:15.670Z,7.68
2022-12-31T08:16:21.749Z,8.00
2022-12-31T08:20:24.683Z,8.52
2022-12-31T08:24:35.284Z,9.00
2022-12-31T08:28:54.009Z,9.57
2022-12-31T08:33:12.675Z,10.07
2022-12-31T08:37:23.969Z,10.46
2022-12-31T08:41:31.125Z,10.86
2022-12-31T08:45:38.969Z,11.23
2022-12-31T08:49:43.694Z,11.51
2022-12-31T08:53:48.319Z,11.49
2022-12-31T08:58:05.632Z,11.43
2022-12-31T09:02:46.152Z,11.40
2022-12-31T09:06:59.315Z,11.51
2022-12-31T09:11:09.244Z,11.65
2022-12-31T09:15:17.912Z,11.74
2022-12-31T09:19:20.535Z,12.03
2022-12-31T09:23:25.177Z,12.22
2022-12-31T09:27:32.433Z,12.54
2022-12-31T09:31:41.315Z,12.74
2022-12-31T09:35:52.450Z,12.88
2022-12-31T09:40:01.335Z,12.97
2022-12-31T09:44:43.954Z,13.13
2022-12-31T09:49:25.500Z,13.26
2022-12-31T09:53:42.116Z,13.29
2022-12-31T09:57:59.379Z,12.98
2022-12-31T10:02:16.401Z,12.76
2022-12-31T10:06:25.769Z,12.64
2022-12-31T10:10:35.392Z,12.70
2022-12-31T10:14:53.892Z,12.89
2022-12-31T10:19:14.405Z,13.08
2022-12-31T10:23:33.386Z,13.05
2022-12-31T10:27:50.650Z,13.09
2022-12-31T10:32:09.116Z,13.10
2022-12-31T10:36:20.013Z,13.08
2022-12-31T10:40:31.229Z,13.05
2022-12-31T10:45:04.702Z,13.08
2022-12-31T10:49:42.897Z,13.19
2022-12-31T10:54:21.893Z,13.31
2022-12-31T10:58:52.875Z,13.39
2022-12-31T11:03:30.536Z,13.43
2022-12-31T11:08:05.122Z,13.43
2022-12-31T11:12:27.941Z,13.41
2022-12-31T11:16:49.755Z,13.40
2022-12-31T11:21:13.139Z,13.36
2022-12-31T11:25:40.176Z,13.33
2022-12-31T11:30:06.332Z,13.27
2022-12-31T11:34:24.244Z,13.31
2022-12-31T11:38:30.250Z,13.36
2022-12-31T11:42:41.422Z,13.37
2022-12-31T11:46:55.090Z,13.45
2022-12-31T11:51:16.294Z,13.50
2022-12-31T11:55:35.981Z,13.47
2022-12-31T11:59:40.057Z,13.68
2022-12-31T12:03:43.788Z,13.93
2022-12-31T12:07:47.309Z,14.28
2022-12-31T12:12:00.034Z,14.60
2022-12-31T12:16:08.332Z,15.09
2022-12-31T12:20:18.267Z,15.45
2022-12-31T12:24:23.485Z,15.33
2022-12-31T12:28:28.198Z,14.94
2022-12-31T12:32:32.185Z,14.89
2022-12-31T12:36:34.915Z,14.69
2022-12-31T12:40:37.455Z,14.79
2022-12-31T12:44:42.310Z,15.05
2022-12-31T12:48:49.406Z,15.18
2022-12-31T12:53:09.318Z,14.95
2022-12-31T12:57:21.999Z,15.10
2022-12-31T13:01:34.951Z,15.16
2022-12-31T13:05:49.060Z,15.42
2022-12-31T13:10:16.212Z,15.65
2022-12-31T13:14:30.868Z,15.87
2022-12-31T13:18:48.207Z,15.88
2022-12-31T13:23:00.008Z,16.03
2022-12-31T13:27:09.789Z,16.07
2022-12-31T13:31:16.459Z,15.88
2022-12-31T13:35:26.283Z,15.96
2022-12-31T13:39:34.371Z,15.87
2022-12-31T13:43:45.768Z,16.36
2022-12-31T13:47:56.636Z,16.34
2022-12-31T13:52:04.865Z,16.11
2022-12-31T13:56:14.045Z,15.80
2022-12-31T14:00:24.155Z,15.56
2022-12-31T14:04:34.273Z,15.51
2022-12-31T14:08:36.909Z,15.38
2022-12-31T14:12:48.197Z,15.29
2022-12-31T14:16:56.550Z,15.10
2022-12-31T14:21:07.714Z,14.75
2022-12-31T14:25:21.519Z,14.43
2022-12-31T14:29:34.166Z,14.01
2022-12-31T14:33:49.853Z,13.39
2022-12-31T14:38:00.135Z,12.81
2022-12-31T14:42:18.382Z,12.26
2022-12-31T14:46:33.746Z,12.00
2022-12-31T14:50:37.775Z,11.81
2022-12-31T14:54:40.426Z,11.53
2022-12-31T14:58:43.663Z,11.50
2022-12-31T15:02:52.189Z,11.59
2022-12-31T15:06:59.866Z,11.48
2022-12-31T15:11:20.218Z,11.47
2022-12-31T15:16:01.830Z,11.16
2022-12-31T15:20:23.021Z,10.88
2022-12-31T15:24:28.010Z,10.75
2022-12-31T15:28:34.158Z,10.54
2022-12-31T15:32:40.433Z,10.41
2022-12-31T15:36:54.500Z,10.40
2022-12-31T15:40:57.404Z,10.01
2022-12-31T15:45:03.690Z,10.14
2022-12-31T15:49:15.679Z,10.13
2022-12-31T15:53:27.325Z,10.27
2022-12-31T15:57:33.868Z,10.40
2022-12-31T16:01:37.972Z,10.45
2022-12-31T16:05:40.657Z,10.40
2022-12-31T16:09:50.590Z,10.18
2022-12-31T16:13:55.828Z,9.96
2022-12-31T16:18:01.122Z,9.80
2022-12-31T16:22:10.617Z,9.65
2022-12-31T16:26:14.680Z,9.53
2022-12-31T16:30:22.236Z,9.40
2022-12-31T16:34:26.636Z,9.34
2022-12-31T16:38:34.229Z,9.23
2022-12-31T16:42:44.309Z,9.08
2022-12-31T16:46:48.645Z,9.00
2022-12-31T16:50:54.776Z,8.94
2022-12-31T16:54:58.196Z,8.90
2022-12-31T16:59:05.748Z,8.91
2022-12-31T17:03:17.893Z,8.81
2022-12-31T17:07:38.257Z,8.64
2022-12-31T17:11:45.423Z,8.52
2022-12-31T17:15:49.587Z,8.43
2022-12-31T17:19:58.404Z,8.31
2022-12-31T17:24:07.554Z,8.23
2022-12-31T17:28:23.108Z,8.14
2022-12-31T17:32:32.157Z,8.10
2022-12-31T17:36:34.777Z,8.14
2022-12-31T17:40:54.666Z,8.17
2022-12-31T17:45:02.181Z,8.11
2022-12-31T17:49:06.361Z,8.15
2022-12-31T17:53:12.192Z,8.09
2022-12-31T17:57:24.918Z,8.06
2022-12-31T18:01:27.406Z,7.99
2022-12-31T18:05:31.450Z,8.02
2022-12-31T18:09:34.055Z,7.95
2022-12-31T18:13:36.752Z,7.65
2022-12-31T18:17:39.656Z,7.67
2022-12-31T18:21:44.615Z,7.65
2022-12-31T18:25:47.339Z,7.61
2022-12-31T18:29:49.926Z,7.62
2022-12-31T18:33:54.156Z,7.66
2022-12-31T18:37:58.979Z,7.93
2022-12-31T18:42:03.345Z,7.96
2022-12-31T18:46:06.577Z,7.87
2022-12-31T18:50:11.442Z,7.78
2022-12-31T18:54:15.823Z,7.66
2022-12-31T18:58:19.152Z,7.60
2022-12-31T19:02:21.987Z,7.50
2022-12-31T19:06:25.033Z,7.42
2022-12-31T19:10:29.627Z,7.39
2022-12-31T19:14:32.374Z,7.39
2022-12-31T19:18:35.334Z,7.30
2022-12-31T19:22:37.901Z,7.29
2022-12-31T19:26:43.521Z,7.23
2022-12-31T19:30:46.526Z,7.23
2022-12-31T19:34:49.296Z,7.16
2022-12-31T19:38:51.967Z,7.17
2022-12-31T19:42:56.871Z,7.07
2022-12-31T19:46:59.487Z,6.99
2022-12-31T19:51:02.140Z,6.88
2022-12-31T19:55:04.939Z,6.78
2022-12-31T19:59:11.251Z,6.61
2022-12-31T20:03:14.998Z,6.57
2022-12-31T20:07:22.125Z,6.48
2022-12-31T20:11:28.449Z,6.41
2022-12-31T20:15:32.497Z,6.43
2022-12-31T20:19:35.231Z,6.45
2022-12-31T20:23:37.927Z,6.34
2022-12-31T20:27:40.635Z,6.21
2022-12-31T20:31:44.573Z,6.08
2022-12-31T20:35:47.473Z,5.97
2022-12-31T20:39:51.057Z,5.91
2022-12-31T20:43:53.691Z,5.90
2022-12-31T20:47:58.065Z,5.82
2022-12-31T20:52:00.713Z,5.83
2022-12-31T20:56:05.055Z,5.83
2022-12-31T21:00:08.812Z,5.83
2022-12-31T21:04:12.896Z,5.82
2022-12-31T21:08:15.624Z,5.80
2022-12-31T21:12:35.816Z,5.78
2022-12-31T21:16:38.617Z,5.81
2022-12-31T21:20:46.951Z,5.80
2022-12-31T21:24:49.527Z,5.75
2022-12-31T21:28:53.440Z,5.74
2022-12-31T21:32:56.059Z,5.78
2022-12-31T21:37:00.029Z,5.74
2022-12-31T21:41:03.268Z,5.73
2022-12-31T21:45:07.438Z,5.78
2022-12-31T21:49:10.164Z,5.81
2022-12-31T21:53:17.599Z,5.83
2022-12-31T21:57:22.918Z,5.91
2022-12-31T22:01:42.974Z,5.91
2022-12-31T22:05:51.131Z,5.82
2022-12-31T22:09:55.323Z,5.81
2022-12-31T22:13:58.334Z,5.80
2022-12-31T22:18:00.931Z,5.80
2022-12-31T22:22:03.510Z,5.78
2022-12-31T22:26:08.948Z,5.82
2022-12-31T22:30:12.187Z,5.80
2022-12-31T22:34:14.769Z,5.78
2022-12-31T22:38:17.370Z,5.73
2022-12-31T22:42:21.294Z,5.65
2022-12-31T22:46:26.156Z,5.65
2022-12-31T22:50:28.841Z,5.64
2022-12-31T22:54:31.520Z,5.64
2022-12-31T22:58:36.082Z,5.65
2022-12-31T23:02:41.972Z,5.57
2022-12-31T23:06:45.066Z,5.50
2022-12-31T23:11:00.632Z,5.43
2022-12-31T23:15:22.740Z,5.23
2022-12-31T23:19:43.133Z,5.14
2022-12-31T23:23:45.730Z,5.11
2022-12-31T23:27:48.406Z,5.09
2022-12-31T23:31:52.687Z,5.04
2022-12-31T23:36:03.988Z,4.98
2022-12-31T23:40:08.084Z,4.87
2022-12-31T23:44:12.854Z,4.86
2022-12-31T23:48:16.834Z,4.85
2022-12-31T23:52:20.474Z,4.87
2022-12-31T23:56:23.994Z,4.89
